Time;durP1;ratioP1;P1;durP2;ratioP2;P2;SDS_P1;SDS_P2;PMS_P1;PMS_P2;Temp;Humidity;BMP_temperature;BMP_pressure;BME280_temperature;BME280_humidity;BME280_pressure;Samples;Min_cycle;Max_cycle;Signal;HPM_P1;HPM_P2
2023/06/30 00:02:06;;;;;;;0.20;0.20;;;15.90;99.90;;;;;;5029112;28;20187;-74
2023/06/30 00:04:32;;;;;;;0.10;0.10;;;15.80;99.90;;;;;;5033025;28;20045;-74
2023/06/30 00:06:59;;;;;;;0.10;0.10;;;15.80;99.90;;;;;;5030852;28;20554;-74
2023/06/30 00:09:25;;;;;;;0.20;0.20;;;15.80;99.90;;;;;;5047792;28;20094;-74
2023/06/30 00:11:55;;;;;;;0.20;0.20;;;15.80;99.90;;;;;;5024889;28;20511;-74
2023/06/30 00:14:22;;;;;;;0.13;0.13;;;15.70;99.90;;;;;;5033054;28;20443;-74
2023/06/30 00:16:49;;;;;;;0.13;0.13;;;15.70;99.90;;;;;;5049635;28;20041;-74
2023/06/30 00:19:16;;;;;;;0.10;0.10;;;15.70;99.90;;;;;;5051144;28;20049;-74
2023/06/30 00:21:42;;;;;;;0.13;0.13;;;15.60;99.90;;;;;;5033433;28;20049;-74
2023/06/30 00:24:13;;;;;;;0.10;0.10;;;15.60;99.90;;;;;;5049998;28;20868;-74
2023/06/30 00:26:39;;;;;;;0.20;0.20;;;15.50;99.90;;;;;;5031689;28;20060;-74
2023/06/30 00:29:06;;;;;;;0.20;0.20;;;15.50;99.90;;;;;;5049242;28;20055;-74
2023/06/30 00:31:31;;;;;;;0.20;0.20;;;15.50;99.90;;;;;;5050540;28;20041;-74
2023/06/30 00:33:57;;;;;;;0.10;0.10;;;15.50;99.90;;;;;;5030458;28;20056;-74
2023/06/30 00:36:23;;;;;;;0.20;0.20;;;15.40;99.90;;;;;;5051229;28;20047;-74
2023/06/30 00:38:54;;;;;;;0.10;0.10;;;15.40;99.90;;;;;;5049661;28;20476;-74
2023/06/30 00:41:20;;;;;;;0.13;0.13;;;15.40;99.90;;;;;;5031592;28;20060;-74
2023/06/30 00:43:46;;;;;;;0.20;0.20;;;15.40;99.90;;;;;;5033088;28;20123;-74
2023/06/30 00:46:15;;;;;;;0.20;0.20;;;15.30;99.90;;;;;;5050529;28;20068;-74
2023/06/30 00:48:41;;;;;;;0.20;0.20;;;15.30;99.90;;;;;;5032300;28;20076;-74
2023/06/30 00:51:07;;;;;;;0.20;0.20;;;15.30;99.90;;;;;;5048737;28;20122;-74
2023/06/30 00:53:32;;;;;;;0.20;0.20;;;15.20;99.90;;;;;;5047980;28;20090;-74
2023/06/30 00:55:58;;;;;;;0.20;0.20;;;15.30;99.90;;;;;;5048323;28;20527;-74
2023/06/30 00:58:24;;;;;;;0.20;0.20;;;15.30;99.90;;;;;;5029902;28;20063;-74
2023/06/30 01:00:59;;;;;;;0.20;0.20;;;15.20;99.90;;;;;;5022219;28;20048;-73
2023/06/30 01:03:35;;;;;;;0.20;0.20;;;15.20;99.90;;;;;;5050413;28;20149;-74
2023/06/30 01:06:19;;;;;;;0.20;0.20;;;15.20;99.90;;;;;;5041918;28;20562;-74
2023/06/30 01:08:53;;;;;;;0.10;0.10;;;15.20;99.90;;;;;;5043534;28;20088;-74
2023/06/30 01:11:20;;;;;;;0.20;0.20;;;15.20;99.90;;;;;;5033141;28;20052;-74
2023/06/30 01:13:47;;;;;;;0.20;0.20;;;15.10;99.90;;;;;;5048523;28;20052;-74
2023/06/30 01:16:15;;;;;;;0.10;0.10;;;15.10;99.90;;;;;;5049568;28;20047;-74
2023/06/30 01:18:44;;;;;;;0.20;0.20;;;15.10;99.90;;;;;;5031039;28;20053;-74
2023/06/30 01:21:14;;;;;;;0.20;0.20;;;15.10;99.90;;;;;;5049735;28;20119;-74
2023/06/30 01:23:55;;;;;;;0.20;0.20;;;15.10;99.90;;;;;;5050238;28;20116;-74
2023/06/30 01:26:22;;;;;;;0.17;0.17;;;15.00;99.90;;;;;;5046656;28;20033;-74
2023/06/30 01:28:50;;;;;;;0.20;0.20;;;15.00;99.90;;;;;;5043203;28;20044;-74
2023/06/30 01:31:18;;;;;;;0.20;0.20;;;15.00;99.90;;;;;;5047653;28;20053;-74
2023/06/30 01:33:44;;;;;;;0.20;0.20;;;15.00;99.90;;;;;;5030463;28;20048;-74
2023/06/30 01:36:09;;;;;;;0.20;0.20;;;14.90;99.90;;;;;;5048117;28;20045;-74
2023/06/30 01:38:35;;;;;;;0.10;0.10;;;14.90;99.90;;;;;;5029310;28;20493;-74
2023/06/30 01:41:01;;;;;;;0.20;0.20;;;14.90;99.90;;;;;;5047900;28;20119;-74
2023/06/30 01:43:29;;;;;;;0.20;0.20;;;14.90;99.90;;;;;;5047793;28;20378;-74
2023/06/30 01:45:55;;;;;;;0.20;0.20;;;14.90;99.90;;;;;;5047723;28;20446;-74
2023/06/30 01:48:21;;;;;;;0.20;0.20;;;14.80;99.90;;;;;;5040714;28;20048;-74
2023/06/30 01:50:48;;;;;;;0.20;0.20;;;14.80;99.90;;;;;;5046619;28;20045;-74
2023/06/30 01:53:14;;;;;;;0.20;0.20;;;14.80;99.90;;;;;;5023014;28;20080;-74
2023/06/30 01:55:47;;;;;;;0.20;0.20;;;14.80;99.90;;;;;;5048577;28;20350;-74
2023/06/30 01:58:13;;;;;;;0.20;0.20;;;14.80;99.90;;;;;;5044178;28;20060;-74
2023/06/30 02:00:38;;;;;;;0.20;0.20;;;14.80;99.90;;;;;;5029273;28;20091;-74
2023/06/30 02:03:04;;;;;;;0.10;0.10;;;14.70;99.90;;;;;;5030082;28;20048;-74
2023/06/30 02:05:30;;;;;;;0.20;0.20;;;14.70;99.90;;;;;;5028860;28;20087;-74
2023/06/30 02:07:55;;;;;;;0.20;0.20;;;14.80;99.90;;;;;;5046686;28;20546;-74
2023/06/30 02:10:21;;;;;;;0.10;0.10;;;14.70;99.90;;;;;;5033652;28;20047;-73
2023/06/30 02:12:47;;;;;;;0.20;0.20;;;14.70;99.90;;;;;;5025353;28;20467;-74
2023/06/30 02:15:12;;;;;;;0.20;0.20;;;14.70;99.90;;;;;;5048064;28;20051;-74
2023/06/30 02:17:40;;;;;;;0.13;0.13;;;14.70;99.90;;;;;;5028926;28;20451;-74
2023/06/30 02:20:06;;;;;;;0.20;0.20;;;14.60;99.90;;;;;;5029619;28;20041;-74
2023/06/30 02:22:35;;;;;;;0.10;0.10;;;14.60;99.90;;;;;;5049987;28;20416;-74
2023/06/30 02:25:01;;;;;;;0.20;0.20;;;14.60;99.90;;;;;;5030896;28;20085;-74
2023/06/30 02:27:27;;;;;;;0.20;0.20;;;14.60;99.90;;;;;;5045176;28;20044;-74
2023/06/30 02:29:53;;;;;;;0.15;0.15;;;14.50;99.90;;;;;;5049342;28;20068;-74
2023/06/30 02:32:19;;;;;;;0.20;0.20;;;14.50;99.90;;;;;;5046720;28;20590;-74
2023/06/30 02:34:45;;;;;;;0.20;0.20;;;14.50;99.90;;;;;;5020525;28;20528;-75
2023/06/30 02:37:11;;;;;;;0.20;0.20;;;14.50;99.90;;;;;;5048091;28;20048;-74
2023/06/30 02:39:36;;;;;;;0.20;0.20;;;14.50;99.90;;;;;;5029968;28;20049;-74
2023/06/30 02:42:02;;;;;;;0.20;0.20;;;14.50;99.90;;;;;;5047119;28;20037;-74
2023/06/30 02:44:28;;;;;;;0.20;0.20;;;14.50;99.90;;;;;;5029640;28;20075;-74
2023/06/30 02:46:54;;;;;;;0.10;0.10;;;14.50;99.90;;;;;;5031163;28;20531;-74
2023/06/30 02:49:20;;;;;;;0.20;0.20;;;14.40;99.90;;;;;;5029987;28;20044;-74
2023/06/30 02:51:45;;;;;;;0.17;0.17;;;14.40;99.90;;;;;;5030060;28;20544;-74
2023/06/30 02:54:11;;;;;;;0.17;0.17;;;14.40;99.90;;;;;;5048441;28;20091;-74
2023/06/30 02:56:36;;;;;;;0.20;0.20;;;14.40;99.90;;;;;;5025211;28;20033;-74
2023/06/30 02:59:02;;;;;;;0.15;0.15;;;14.40;99.90;;;;;;5027515;28;20041;-74
2023/06/30 03:01:28;;;;;;;0.10;0.10;;;14.40;99.90;;;;;;5032083;28;20051;-74
2023/06/30 03:03:53;;;;;;;0.10;0.10;;;14.40;99.90;;;;;;5029311;28;20045;-74
2023/06/30 03:06:20;;;;;;;0.20;0.20;;;14.40;99.90;;;;;;5041419;28;20134;-74
2023/06/30 03:08:46;;;;;;;0.20;0.20;;;14.40;99.90;;;;;;5034798;28;20500;-75
2023/06/30 03:11:12;;;;;;;0.10;0.10;;;14.30;99.90;;;;;;5045113;28;20128;-74
2023/06/30 03:13:37;;;;;;;0.20;0.20;;;14.30;99.90;;;;;;5030829;28;20519;-74
2023/06/30 03:16:04;;;;;;;0.20;0.20;;;14.30;99.90;;;;;;5053108;28;20503;-74
2023/06/30 03:18:30;;;;;;;0.20;0.20;;;14.30;99.90;;;;;;5035048;28;20045;-74
2023/06/30 03:20:56;;;;;;;0.20;0.20;;;14.30;99.90;;;;;;5032062;28;20045;-75
2023/06/30 03:23:21;;;;;;;0.20;0.20;;;14.30;99.90;;;;;;5032891;28;20111;-74
2023/06/30 03:25:47;;;;;;;0.20;0.20;;;14.30;99.90;;;;;;5034196;28;20044;-74
2023/06/30 03:28:13;;;;;;;0.20;0.20;;;14.20;99.90;;;;;;5047605;28;20052;-74
2023/06/30 03:30:38;;;;;;;0.20;0.20;;;14.20;99.90;;;;;;5034691;28;20135;-75
2023/06/30 03:33:05;;;;;;;0.20;0.20;;;14.20;99.90;;;;;;5047682;28;20152;-74
2023/06/30 03:35:30;;;;;;;0.20;0.20;;;14.20;99.90;;;;;;5050382;28;20107;-74
2023/06/30 03:37:56;;;;;;;0.20;0.20;;;14.20;99.90;;;;;;5048822;28;20508;-75
2023/06/30 03:40:22;;;;;;;0.20;0.20;;;14.20;99.90;;;;;;5047586;28;20041;-74
2023/06/30 03:42:47;;;;;;;0.20;0.20;;;14.20;99.90;;;;;;5045778;28;20334;-74
2023/06/30 03:45:13;;;;;;;0.20;0.20;;;14.20;99.90;;;;;;5052179;28;20402;-74
2023/06/30 03:47:39;;;;;;;0.20;0.20;;;14.20;99.90;;;;;;5050454;28;20056;-73
2023/06/30 03:50:05;;;;;;;0.20;0.20;;;14.20;99.90;;;;;;5051728;28;20412;-74
2023/06/30 03:52:31;;;;;;;0.10;0.10;;;14.20;99.90;;;;;;5052187;28;20460;-74
2023/06/30 03:54:57;;;;;;;0.20;0.20;;;14.20;99.90;;;;;;5051348;28;20045;-74
2023/06/30 03:57:22;;;;;;;0.20;0.20;;;14.20;99.90;;;;;;5047226;28;20048;-74
2023/06/30 03:59:48;;;;;;;0.10;0.10;;;14.10;99.90;;;;;;5049327;28;20048;-74
2023/06/30 04:02:14;;;;;;;0.20;0.20;;;14.20;99.90;;;;;;5045178;28;20033;-74
2023/06/30 04:04:39;;;;;;;0.10;0.10;;;14.20;99.90;;;;;;5049226;28;20098;-74
2023/06/30 04:07:05;;;;;;;0.20;0.20;;;14.20;99.90;;;;;;5052381;28;20088;-75
2023/06/30 04:09:31;;;;;;;0.10;0.10;;;14.20;99.90;;;;;;5051533;28;20053;-74
2023/06/30 04:11:57;;;;;;;0.20;0.20;;;14.30;99.90;;;;;;5045130;28;20041;-74
2023/06/30 04:14:22;;;;;;;0.20;0.20;;;14.20;99.90;;;;;;5049539;28;20069;-74
2023/06/30 04:16:48;;;;;;;0.20;0.20;;;14.30;99.90;;;;;;5049419;28;20037;-74
2023/06/30 04:19:14;;;;;;;0.20;0.20;;;14.10;99.90;;;;;;5049768;28;20045;-74
2023/06/30 04:21:39;;;;;;;0.20;0.20;;;14.20;99.90;;;;;;5050737;28;20080;-74
2023/06/30 04:24:05;;;;;;;0.17;0.17;;;14.20;99.90;;;;;;5066104;28;20056;-74
2023/06/30 04:26:31;;;;;;;0.20;0.20;;;14.20;99.90;;;;;;5049159;28;20041;-74
2023/06/30 04:28:57;;;;;;;0.20;0.20;;;14.30;99.90;;;;;;5048875;28;20059;-74
2023/06/30 04:31:23;;;;;;;0.20;0.20;;;14.30;99.90;;;;;;5048500;28;20521;-74
2023/06/30 04:33:49;;;;;;;0.15;0.15;;;14.30;99.90;;;;;;5047892;28;20049;-74
2023/06/30 04:36:17;;;;;;;0.20;0.20;;;14.30;99.90;;;;;;5048161;28;20098;-74
2023/06/30 04:38:44;;;;;;;0.20;0.20;;;14.30;99.90;;;;;;5048352;28;20144;-74
2023/06/30 04:41:10;;;;;;;0.17;0.17;;;14.30;99.90;;;;;;5048586;28;20044;-75
2023/06/30 04:43:36;;;;;;;0.20;0.20;;;14.30;99.90;;;;;;5047526;28;20389;-75
2023/06/30 04:46:01;;;;;;;0.20;0.20;;;14.40;99.90;;;;;;5048580;28;20037;-74
2023/06/30 04:48:27;;;;;;;0.20;0.20;;;14.40;99.90;;;;;;5050997;28;20430;-75
2023/06/30 04:50:53;;;;;;;0.20;0.20;;;14.40;99.90;;;;;;5050571;28;20037;-74
2023/06/30 04:53:18;;;;;;;0.20;0.20;;;14.40;99.90;;;;;;5048148;28;20049;-74
2023/06/30 04:55:44;;;;;;;0.17;0.17;;;14.50;99.90;;;;;;5047708;28;20055;-75
2023/06/30 04:58:10;;;;;;;0.20;0.20;;;14.50;99.90;;;;;;5045351;28;20102;-75
2023/06/30 05:00:35;;;;;;;0.20;0.20;;;14.50;99.90;;;;;;5044767;28;20149;-74
2023/06/30 05:03:02;;;;;;;0.20;0.20;;;14.60;99.90;;;;;;5047041;28;20045;-74
2023/06/30 05:05:28;;;;;;;0.20;0.20;;;14.70;99.90;;;;;;5040596;28;20045;-74
2023/06/30 05:07:53;;;;;;;0.20;0.20;;;14.70;99.90;;;;;;5048352;28;20041;-74
2023/06/30 05:10:19;;;;;;;0.20;0.20;;;14.70;99.90;;;;;;5048338;28;20040;-74
2023/06/30 05:12:45;;;;;;;0.20;0.20;;;14.70;99.90;;;;;;5039916;28;20041;-75
2023/06/30 05:15:11;;;;;;;0.17;0.17;;;14.80;99.90;;;;;;5049000;28;20333;-75
2023/06/30 05:17:37;;;;;;;0.15;0.15;;;14.80;99.90;;;;;;5049921;28;20041;-75
2023/06/30 05:20:05;;;;;;;0.20;0.20;;;14.90;99.90;;;;;;5047364;28;20128;-75
2023/06/30 05:22:31;;;;;;;0.20;0.20;;;14.90;99.90;;;;;;5047479;28;20040;-74
2023/06/30 05:24:57;;;;;;;0.15;0.15;;;15.00;99.90;;;;;;5049004;28;20053;-75
2023/06/30 05:27:22;;;;;;;0.20;0.20;;;15.00;99.90;;;;;;5044971;28;20044;-75
2023/06/30 05:29:48;;;;;;;0.13;0.13;;;15.10;99.90;;;;;;5048393;28;20033;-75
2023/06/30 05:32:14;;;;;;;0.20;0.20;;;15.20;99.90;;;;;;5047413;28;20056;-75
2023/06/30 05:34:42;;;;;;;0.20;0.20;;;15.20;99.90;;;;;;5049313;28;20049;-75
2023/06/30 05:37:07;;;;;;;0.10;0.10;;;15.30;99.90;;;;;;5047869;28;20071;-75
2023/06/30 05:39:33;;;;;;;0.20;0.20;;;15.30;99.90;;;;;;5046941;28;20079;-74
2023/06/30 05:41:59;;;;;;;0.13;0.13;;;15.30;99.90;;;;;;5043915;28;20041;-75
2023/06/30 05:44:24;;;;;;;0.20;0.20;;;15.40;99.90;;;;;;5047730;28;20450;-75
2023/06/30 05:46:50;;;;;;;0.10;0.10;;;15.40;99.90;;;;;;5049367;28;20131;-75
2023/06/30 05:49:16;;;;;;;0.20;0.20;;;15.50;99.90;;;;;;5049191;28;20081;-75
2023/06/30 05:51:41;;;;;;;0.20;0.20;;;15.50;99.90;;;;;;5049332;28;20285;-74
2023/06/30 05:54:09;;;;;;;0.20;0.20;;;15.60;99.90;;;;;;5048532;28;20068;-75
2023/06/30 05:56:34;;;;;;;0.20;0.20;;;15.60;99.90;;;;;;5049002;28;20077;-74
2023/06/30 05:59:00;;;;;;;0.17;0.17;;;15.60;99.90;;;;;;5044577;28;22181;-75
2023/06/30 06:01:26;;;;;;;0.20;0.20;;;15.70;99.90;;;;;;5043049;28;20480;-74
2023/06/30 06:03:51;;;;;;;0.20;0.20;;;15.80;99.90;;;;;;5048718;28;20048;-74
2023/06/30 06:06:17;;;;;;;0.20;0.20;;;15.80;99.90;;;;;;5048005;28;20491;-74
2023/06/30 06:08:46;;;;;;;0.20;0.20;;;15.80;99.90;;;;;;5046633;28;20053;-74
2023/06/30 06:11:13;;;;;;;0.10;0.10;;;15.90;99.90;;;;;;5048597;28;20549;-74
2023/06/30 06:13:39;;;;;;;0.20;0.20;;;15.80;99.90;;;;;;5037264;28;20244;-75
2023/06/30 06:16:06;;;;;;;0.17;0.17;;;15.90;99.90;;;;;;5044550;28;20029;-74
2023/06/30 06:18:32;;;;;;;0.20;0.20;;;15.90;99.90;;;;;;5046217;28;20063;-74
2023/06/30 06:20:58;;;;;;;0.20;0.20;;;15.90;99.90;;;;;;5043829;28;20493;-77
2023/06/30 06:23:24;;;;;;;0.20;0.20;;;15.90;99.90;;;;;;5045107;28;20044;-75
2023/06/30 06:25:50;;;;;;;0.20;0.20;;;15.90;99.90;;;;;;5046924;28;20497;-76
2023/06/30 06:28:17;;;;;;;0.10;0.10;;;16.00;99.90;;;;;;5040207;28;20122;-78
2023/06/30 06:30:43;;;;;;;0.20;0.20;;;16.10;99.90;;;;;;5046610;28;20146;-79
2023/06/30 06:33:09;;;;;;;0.10;0.10;;;16.10;99.90;;;;;;5046376;28;20064;-80
2023/06/30 06:35:34;;;;;;;0.20;0.20;;;16.10;99.90;;;;;;5048790;28;20041;-81
2023/06/30 06:38:01;;;;;;;0.20;0.20;;;16.20;99.90;;;;;;5044856;28;20673;-79
2023/06/30 06:40:29;;;;;;;0.15;0.15;;;16.30;99.90;;;;;;5045660;28;20048;-79
2023/06/30 06:42:55;;;;;;;0.20;0.20;;;16.40;99.90;;;;;;5040867;28;20048;-80
2023/06/30 06:45:21;;;;;;;0.20;0.20;;;16.40;99.90;;;;;;5049742;28;20489;-79
2023/06/30 06:48:15;;;;;;;0.20;0.20;;;16.50;99.90;;;;;;5049905;28;20066;-79
2023/06/30 06:50:41;;;;;;;0.10;0.10;;;16.60;99.90;;;;;;5047722;28;20052;-78
2023/06/30 06:53:07;;;;;;;0.20;0.20;;;16.70;99.90;;;;;;5039925;28;20056;-78
2023/06/30 06:55:33;;;;;;;0.20;0.20;;;16.70;99.90;;;;;;5045661;28;20040;-79
2023/06/30 06:57:59;;;;;;;0.20;0.20;;;16.80;99.90;;;;;;5036254;28;20116;-78
2023/06/30 07:00:25;;;;;;;0.20;0.20;;;16.90;99.90;;;;;;5045494;28;20060;-79
2023/06/30 07:02:51;;;;;;;0.20;0.20;;;16.90;99.90;;;;;;5045892;28;20040;-79
2023/06/30 07:05:17;;;;;;;0.20;0.20;;;17.00;99.90;;;;;;5046419;28;20492;-79
2023/06/30 07:07:43;;;;;;;0.20;0.20;;;17.10;99.90;;;;;;5045077;28;20048;-79
2023/06/30 07:10:09;;;;;;;0.20;0.20;;;17.10;99.90;;;;;;5045749;28;20049;-79
2023/06/30 07:12:35;;;;;;;0.20;0.20;;;17.20;99.90;;;;;;5042402;28;20049;-79
2023/06/30 07:15:00;;;;;;;0.20;0.20;;;17.30;99.90;;;;;;5036395;28;20069;-80
2023/06/30 07:17:26;;;;;;;0.20;0.20;;;17.30;99.90;;;;;;5054196;28;20364;-79
2023/06/30 07:19:52;;;;;;;0.20;0.20;;;17.30;99.90;;;;;;5068232;28;20053;-79
2023/06/30 07:22:17;;;;;;;0.20;0.20;;;17.30;99.90;;;;;;5057231;28;20069;-80
2023/06/30 07:24:43;;;;;;;0.10;0.10;;;17.40;99.90;;;;;;5049461;28;20542;-80
2023/06/30 07:27:09;;;;;;;0.20;0.20;;;17.30;99.90;;;;;;5048329;28;20148;-79
2023/06/30 07:29:34;;;;;;;0.20;0.20;;;17.30;99.90;;;;;;5049488;28;20111;-79
2023/06/30 07:32:00;;;;;;;0.20;0.20;;;17.30;99.90;;;;;;5046214;28;20056;-79
2023/06/30 07:34:26;;;;;;;0.20;0.20;;;17.30;99.90;;;;;;5058029;28;20492;-79
2023/06/30 07:36:51;;;;;;;0.20;0.20;;;17.40;99.90;;;;;;5044475;28;20117;-79
2023/06/30 07:39:18;;;;;;;0.20;0.20;;;17.40;99.90;;;;;;5045562;28;20400;-79
2023/06/30 07:41:43;;;;;;;0.20;0.20;;;17.40;99.90;;;;;;5047471;28;20556;-79
2023/06/30 07:44:11;;;;;;;0.20;0.20;;;17.40;99.90;;;;;;5041050;28;20053;-79
2023/06/30 07:46:37;;;;;;;0.20;0.20;;;17.40;99.90;;;;;;5047632;28;20049;-77
2023/06/30 07:49:03;;;;;;;0.20;0.20;;;17.40;99.90;;;;;;5044803;28;20468;-80
2023/06/30 07:51:32;;;;;;;0.20;0.20;;;17.40;99.90;;;;;;5050695;28;20064;-79
2023/06/30 07:53:57;;;;;;;0.20;0.20;;;17.40;99.90;;;;;;5048688;28;20568;-80
2023/06/30 07:56:23;;;;;;;0.20;0.20;;;17.50;99.90;;;;;;5052185;28;20132;-79
2023/06/30 07:58:49;;;;;;;0.20;0.20;;;17.50;99.90;;;;;;5043673;28;20041;-76
2023/06/30 08:01:15;;;;;;;0.20;0.20;;;17.60;99.90;;;;;;5041315;28;20048;-78
2023/06/30 08:03:40;;;;;;;0.20;0.20;;;17.70;99.90;;;;;;5064303;28;20052;-78
2023/06/30 08:06:06;;;;;;;0.20;0.20;;;17.80;99.90;;;;;;5046702;28;20044;-78
2023/06/30 08:08:32;;;;;;;0.13;0.13;;;17.90;99.90;;;;;;5045455;28;20052;-78
2023/06/30 08:10:58;;;;;;;0.20;0.20;;;18.00;99.90;;;;;;5046839;28;20115;-77
2023/06/30 08:13:25;;;;;;;0.20;0.20;;;18.00;99.90;;;;;;5041952;28;20037;-78
2023/06/30 08:15:51;;;;;;;0.20;0.20;;;18.10;99.90;;;;;;5041080;28;20530;-78
2023/06/30 08:18:17;;;;;;;0.20;0.20;;;18.20;99.90;;;;;;5041938;28;20106;-78
2023/06/30 08:20:42;;;;;;;0.20;0.20;;;18.20;99.90;;;;;;5040775;28;20404;-77
2023/06/30 08:23:10;;;;;;;0.20;0.20;;;18.20;99.90;;;;;;5040482;28;20044;-78
2023/06/30 08:25:36;;;;;;;0.10;0.10;;;18.20;99.90;;;;;;5041891;28;20047;-78
2023/06/30 08:28:02;;;;;;;0.20;0.20;;;18.20;99.90;;;;;;5040834;28;20412;-78
2023/06/30 08:30:27;;;;;;;0.20;0.20;;;18.20;99.90;;;;;;5046501;28;20033;-79
2023/06/30 08:32:54;;;;;;;0.20;0.20;;;18.20;99.90;;;;;;5043895;28;20048;-78
2023/06/30 08:35:20;;;;;;;0.20;0.20;;;18.20;99.90;;;;;;5041737;28;20051;-79
2023/06/30 08:37:46;;;;;;;0.20;0.20;;;18.10;99.90;;;;;;5043532;28;20127;-78
2023/06/30 08:40:12;;;;;;;0.20;0.20;;;18.10;99.90;;;;;;5042276;28;21473;-79
2023/06/30 08:42:43;;;;;;;0.20;0.20;;;18.20;99.90;;;;;;5042056;28;20128;-78
2023/06/30 08:45:10;;;;;;;0.20;0.20;;;18.30;99.90;;;;;;5048492;28;20081;-78
2023/06/30 08:47:37;;;;;;;0.20;0.20;;;18.30;99.90;;;;;;5051235;28;20489;-77
2023/06/30 08:50:04;;;;;;;0.20;0.20;;;18.30;99.90;;;;;;5049930;28;20132;-77
2023/06/30 08:52:30;;;;;;;0.20;0.20;;;18.30;99.90;;;;;;5051283;28;20049;-78
2023/06/30 08:54:56;;;;;;;0.30;0.30;;;18.30;99.90;;;;;;5033577;28;20052;-78
2023/06/30 08:57:22;;;;;;;0.10;0.10;;;18.50;99.90;;;;;;5049913;28;20041;-77
2023/06/30 08:59:48;;;;;;;0.20;0.20;;;18.50;99.90;;;;;;5048793;28;20037;-78
2023/06/30 09:02:14;;;;;;;0.20;0.20;;;18.60;99.90;;;;;;5049541;28;20041;-78
2023/06/30 09:04:40;;;;;;;0.20;0.20;;;18.70;99.90;;;;;;5049559;28;20080;-78
2023/06/30 09:07:12;;;;;;;0.20;0.20;;;18.70;99.90;;;;;;5047854;28;20045;-77
2023/06/30 09:09:42;;;;;;;0.20;0.20;;;18.60;99.90;;;;;;5050673;28;20492;-77
2023/06/30 09:12:12;;;;;;;0.20;0.20;;;18.60;99.90;;;;;;5049170;28;20049;-77
2023/06/30 09:14:40;;;;;;;0.20;0.20;;;18.60;99.90;;;;;;5050047;28;20078;-78
2023/06/30 09:17:06;;;;;;;0.20;0.20;;;18.50;99.90;;;;;;5038331;28;20303;-78
2023/06/30 09:19:32;;;;;;;0.20;0.20;;;18.60;99.90;;;;;;5049284;28;20094;-77
2023/06/30 09:21:58;;;;;;;0.20;0.20;;;18.60;99.90;;;;;;5050246;28;20037;-77
2023/06/30 09:24:25;;;;;;;0.20;0.20;;;18.70;99.90;;;;;;5049851;28;20044;-78
2023/06/30 09:26:53;;;;;;;0.20;0.20;;;18.80;99.90;;;;;;5049108;28;20382;-79
2023/06/30 09:29:22;;;;;;;0.20;0.20;;;18.80;99.90;;;;;;5050815;28;20447;-79
2023/06/30 09:31:51;;;;;;;0.20;0.20;;;18.80;99.90;;;;;;5048931;28;20056;-78
2023/06/30 09:34:19;;;;;;;0.20;0.20;;;18.80;99.90;;;;;;5048935;28;20048;-78
2023/06/30 09:36:52;;;;;;;0.20;0.20;;;18.70;99.90;;;;;;5051317;28;20044;-78
2023/06/30 09:39:18;;;;;;;0.20;0.20;;;18.70;99.90;;;;;;5049901;28;20037;-78
2023/06/30 09:41:48;;;;;;;0.20;0.20;;;18.80;99.90;;;;;;5046719;28;20044;-79
2023/06/30 09:44:17;;;;;;;0.20;0.20;;;18.90;99.90;;;;;;5047085;28;20041;-77
2023/06/30 09:46:50;;;;;;;0.10;0.10;;;18.90;99.90;;;;;;5048608;28;20045;-78
2023/06/30 09:49:42;;;;;;;0.20;0.20;;;19.10;99.90;;;;;;5049635;28;20140;-77
2023/06/30 09:52:08;;;;;;;0.20;0.20;;;19.10;99.90;;;;;;5027795;28;20049;-78
2023/06/30 09:54:36;;;;;;;0.20;0.20;;;19.00;99.90;;;;;;5040893;28;20037;-78
2023/06/30 09:57:05;;;;;;;0.20;0.20;;;19.10;99.90;;;;;;5048789;28;20083;-79
2023/06/30 09:59:32;;;;;;;0.20;0.20;;;19.10;99.90;;;;;;5047637;28;20033;-79
2023/06/30 10:01:59;;;;;;;0.20;0.20;;;19.20;99.90;;;;;;5048067;28;20044;-79
2023/06/30 10:04:28;;;;;;;0.10;0.10;;;19.30;99.90;;;;;;5043171;28;20041;-78
2023/06/30 10:06:54;;;;;;;0.20;0.20;;;19.30;99.90;;;;;;5039980;28;20435;-79
2023/06/30 10:09:24;;;;;;;0.20;0.20;;;19.30;99.90;;;;;;5048059;28;20045;-80
2023/06/30 10:11:52;;;;;;;0.20;0.20;;;19.20;99.90;;;;;;5039900;28;20044;-79
2023/06/30 10:14:21;;;;;;;0.15;0.15;;;19.20;99.90;;;;;;5043937;28;20120;-81
2023/06/30 10:16:50;;;;;;;0.20;0.20;;;19.20;99.90;;;;;;5041449;28;20570;-78
2023/06/30 10:19:16;;;;;;;0.20;0.20;;;19.20;99.90;;;;;;5034428;28;20520;-78
2023/06/30 10:21:42;;;;;;;0.20;0.20;;;19.30;99.90;;;;;;5048769;28;20044;-80
2023/06/30 10:24:10;;;;;;;0.20;0.20;;;19.40;99.90;;;;;;5036293;28;20095;-79
2023/06/30 10:26:37;;;;;;;0.20;0.20;;;19.50;99.90;;;;;;5048808;28;20184;-78
2023/06/30 10:29:04;;;;;;;0.25;0.25;;;19.60;99.90;;;;;;5043729;28;20044;-79
2023/06/30 10:31:32;;;;;;;0.20;0.20;;;19.60;99.90;;;;;;5046977;28;20091;-79
2023/06/30 10:33:57;;;;;;;0.20;0.20;;;19.60;99.90;;;;;;5049720;28;20098;-79
2023/06/30 10:36:25;;;;;;;0.20;0.20;;;19.60;99.90;;;;;;5048404;28;20045;-78
2023/06/30 10:38:51;;;;;;;0.20;0.20;;;19.60;99.90;;;;;;5050131;28;20497;-78
2023/06/30 10:41:20;;;;;;;0.20;0.20;;;19.60;99.90;;;;;;5025444;28;20064;-78
2023/06/30 10:44:08;;;;;;;0.20;0.20;;;19.70;99.90;;;;;;5023666;28;20056;-79
2023/06/30 10:46:43;;;;;;;0.20;0.20;;;19.80;99.90;;;;;;5029517;28;20041;-79
2023/06/30 10:49:17;;;;;;;0.20;0.20;;;19.90;99.90;;;;;;5046742;28;20041;-80
2023/06/30 10:51:50;;;;;;;0.20;0.20;;;20.00;99.90;;;;;;5030405;28;20080;-79
2023/06/30 10:54:25;;;;;;;0.20;0.20;;;20.00;99.90;;;;;;5047127;28;20052;-77
2023/06/30 10:56:52;;;;;;;0.20;0.20;;;20.00;99.90;;;;;;5021731;28;20083;-78
2023/06/30 10:59:25;;;;;;;0.20;0.20;;;20.00;99.90;;;;;;5030330;28;20048;-77
2023/06/30 11:02:29;;;;;;;0.20;0.20;;;20.10;99.90;;;;;;5045464;28;20598;-78
2023/06/30 11:05:17;;;;;;;0.20;0.20;;;20.20;99.90;;;;;;4945850;28;20441;-78
2023/06/30 11:07:49;;;;;;;0.20;0.20;;;20.30;99.90;;;;;;5025047;28;20505;-78
2023/06/30 11:10:26;;;;;;;0.10;0.10;;;20.40;99.90;;;;;;5029063;28;20057;-77
2023/06/30 11:12:56;;;;;;;0.20;0.20;;;20.40;99.90;;;;;;5028213;28;20055;-78
2023/06/30 11:15:41;;;;;;;0.20;0.20;;;20.40;99.90;;;;;;5030856;28;20128;-78
2023/06/30 11:18:15;;;;;;;0.20;0.20;;;20.40;99.90;;;;;;5024216;28;20111;-78
2023/06/30 11:21:04;;;;;;;0.20;0.20;;;20.40;99.90;;;;;;5029902;28;20046;-77
2023/06/30 11:23:36;;;;;;;0.20;0.20;;;20.30;99.90;;;;;;5029727;28;20057;-78
2023/06/30 11:26:16;;;;;;;0.20;0.20;;;20.30;99.90;;;;;;5027548;28;20412;-77
2023/06/30 11:28:42;;;;;;;0.20;0.20;;;20.30;99.90;;;;;;5048983;28;20037;-77
2023/06/30 11:31:10;;;;;;;0.20;0.20;;;20.20;99.90;;;;;;5035488;28;20480;-78
2023/06/30 11:33:40;;;;;;;0.20;0.20;;;20.20;99.90;;;;;;5052681;28;20060;-77
2023/06/30 11:36:15;;;;;;;0.20;0.20;;;20.20;99.90;;;;;;5051640;28;20037;-78
2023/06/30 11:38:45;;;;;;;0.20;0.20;;;20.20;99.90;;;;;;5033785;28;20373;-78
2023/06/30 11:41:11;;;;;;;0.20;0.20;;;20.20;99.90;;;;;;5034963;28;20370;-77
2023/06/30 11:43:39;;;;;;;0.20;0.20;;;20.30;99.90;;;;;;5033009;28;20045;-77
2023/06/30 11:46:05;;;;;;;0.20;0.20;;;20.40;99.90;;;;;;5015097;28;20049;-78
2023/06/30 11:48:39;;;;;;;0.20;0.20;;;20.60;99.90;;;;;;5015733;28;20128;-77
2023/06/30 11:51:06;;;;;;;0.20;0.20;;;20.80;99.90;;;;;;5032160;28;20484;-78
2023/06/30 11:53:32;;;;;;;0.20;0.20;;;20.90;99.90;;;;;;5051465;28;20044;-77
2023/06/30 11:55:58;;;;;;;0.20;0.20;;;21.10;99.90;;;;;;5035469;28;20037;-78
2023/06/30 11:58:24;;;;;;;0.20;0.20;;;21.20;99.90;;;;;;5033984;28;20048;-77
2023/06/30 12:00:50;;;;;;;0.20;0.20;;;21.30;99.90;;;;;;5052377;28;20546;-77
2023/06/30 12:03:17;;;;;;;0.20;0.20;;;21.50;99.90;;;;;;5053027;28;20132;-78
2023/06/30 12:05:53;;;;;;;0.20;0.20;;;21.60;99.90;;;;;;5035548;28;20053;-77
2023/06/30 12:08:20;;;;;;;0.20;0.20;;;21.60;99.90;;;;;;5051672;28;20069;-77
2023/06/30 12:10:47;;;;;;;0.15;0.15;;;21.80;99.20;;;;;;5034709;28;20084;-77
2023/06/30 12:13:13;;;;;;;0.20;0.20;;;21.90;99.10;;;;;;5033698;28;20123;-77
2023/06/30 12:15:38;;;;;;;0.20;0.20;;;21.90;98.40;;;;;;5052489;28;20128;-77
2023/06/30 12:18:05;;;;;;;0.20;0.20;;;22.00;98.50;;;;;;5050578;28;20072;-77
2023/06/30 12:20:35;;;;;;;0.20;0.20;;;22.00;98.20;;;;;;5018900;28;20045;-78
2023/06/30 12:23:03;;;;;;;0.20;0.20;;;22.20;98.10;;;;;;5031031;28;20091;-77
2023/06/30 12:25:34;;;;;;;0.20;0.20;;;22.20;97.90;;;;;;5034121;28;20049;-78
2023/06/30 12:28:06;;;;;;;0.20;0.20;;;22.20;98.10;;;;;;5032728;28;20048;-77
2023/06/30 12:30:33;;;;;;;0.20;0.20;;;22.20;98.00;;;;;;5035000;28;20102;-77
2023/06/30 12:33:00;;;;;;;0.20;0.20;;;22.40;98.20;;;;;;5052319;28;20132;-78
2023/06/30 12:35:37;;;;;;;0.20;0.20;;;22.50;98.00;;;;;;5034327;28;20106;-78
2023/06/30 12:38:04;;;;;;;0.20;0.20;;;22.60;98.00;;;;;;5052250;28;20049;-77
2023/06/30 12:40:30;;;;;;;0.20;0.20;;;22.70;97.40;;;;;;5051478;28;20098;-77
2023/06/30 12:42:59;;;;;;;0.20;0.20;;;22.80;97.40;;;;;;5032524;28;20163;-77
2023/06/30 12:45:25;;;;;;;0.20;0.20;;;22.90;97.40;;;;;;5052579;28;20041;-77
2023/06/30 12:47:51;;;;;;;0.30;0.30;;;23.00;97.40;;;;;;5051268;28;20056;-77
2023/06/30 12:50:17;;;;;;;0.20;0.20;;;23.00;96.60;;;;;;5051791;28;20500;-77